sensor_id;sensor_type;location;lat;lon;timestamp;P1;durP1;ratioP1;P2;durP2;ratioP2
43552;SDS011;29153;42.696;23.218;2024-02-26T00:00:54;15.93;;;8.18;;
43552;SDS011;29153;42.696;23.218;2024-02-26T00:03:22;17.98;;;7.95;;
43552;SDS011;29153;42.696;23.218;2024-02-26T00:05:50;18.82;;;7.75;;
43552;SDS011;29153;42.696;23.218;2024-02-26T00:08:17;19.25;;;8.48;;
43552;SDS011;29153;42.696;23.218;2024-02-26T00:10:45;18.00;;;8.23;;
43552;SDS011;29153;42.696;23.218;2024-02-26T00:13:12;17.67;;;7.97;;
43552;SDS011;29153;42.696;23.218;2024-02-26T00:15:40;17.25;;;8.23;;
43552;SDS011;29153;42.696;23.218;2024-02-26T00:18:07;13.98;;;7.20;;
43552;SDS011;29153;42.696;23.218;2024-02-26T00:20:35;14.35;;;8.18;;
43552;SDS011;29153;42.696;23.218;2024-02-26T00:23:02;15.00;;;8.13;;
43552;SDS011;29153;42.696;23.218;2024-02-26T00:25:30;13.80;;;7.22;;
43552;SDS011;29153;42.696;23.218;2024-02-26T00:27:57;14.85;;;7.45;;
43552;SDS011;29153;42.696;23.218;2024-02-26T00:30:25;17.60;;;7.35;;
43552;SDS011;29153;42.696;23.218;2024-02-26T00:32:52;16.85;;;7.50;;
43552;SDS011;29153;42.696;23.218;2024-02-26T00:35:20;16.80;;;8.10;;
43552;SDS011;29153;42.696;23.218;2024-02-26T00:37:47;14.10;;;7.58;;
43552;SDS011;29153;42.696;23.218;2024-02-26T00:40:15;17.87;;;7.60;;
43552;SDS011;29153;42.696;23.218;2024-02-26T00:42:42;14.53;;;7.08;;
43552;SDS011;29153;42.696;23.218;2024-02-26T00:45:12;20.60;;;8.60;;
43552;SDS011;29153;42.696;23.218;2024-02-26T00:47:40;17.10;;;8.30;;
43552;SDS011;29153;42.696;23.218;2024-02-26T00:50:08;17.02;;;8.15;;
43552;SDS011;29153;42.696;23.218;2024-02-26T00:52:36;18.07;;;8.33;;
43552;SDS011;29153;42.696;23.218;2024-02-26T00:55:03;18.62;;;7.78;;
43552;SDS011;29153;42.696;23.218;2024-02-26T00:57:31;15.43;;;7.50;;
43552;SDS011;29153;42.696;23.218;2024-02-26T00:59:59;19.12;;;8.98;;
43552;SDS011;29153;42.696;23.218;2024-02-26T01:02:27;17.87;;;9.28;;
43552;SDS011;29153;42.696;23.218;2024-02-26T01:04:54;20.12;;;9.83;;
43552;SDS011;29153;42.696;23.218;2024-02-26T01:07:22;18.37;;;8.83;;
43552;SDS011;29153;42.696;23.218;2024-02-26T01:09:49;22.58;;;9.40;;
43552;SDS011;29153;42.696;23.218;2024-02-26T01:12:17;19.65;;;8.50;;
43552;SDS011;29153;42.696;23.218;2024-02-26T01:14:44;19.32;;;9.63;;
43552;SDS011;29153;42.696;23.218;2024-02-26T01:17:12;16.50;;;8.60;;
43552;SDS011;29153;42.696;23.218;2024-02-26T01:19:39;18.32;;;9.00;;
43552;SDS011;29153;42.696;23.218;2024-02-26T01:22:07;18.42;;;8.73;;
43552;SDS011;29153;42.696;23.218;2024-02-26T01:24:34;17.98;;;8.28;;
43552;SDS011;29153;42.696;23.218;2024-02-26T01:27:02;20.37;;;9.13;;
43552;SDS011;29153;42.696;23.218;2024-02-26T01:29:29;18.60;;;8.55;;
43552;SDS011;29153;42.696;23.218;2024-02-26T01:31:57;14.60;;;7.50;;
43552;SDS011;29153;42.696;23.218;2024-02-26T01:34:24;19.05;;;8.80;;
43552;SDS011;29153;42.696;23.218;2024-02-26T01:36:52;17.98;;;8.85;;
43552;SDS011;29153;42.696;23.218;2024-02-26T01:39:21;16.90;;;8.43;;
43552;SDS011;29153;42.696;23.218;2024-02-26T01:41:49;19.15;;;9.58;;
43552;SDS011;29153;42.696;23.218;2024-02-26T01:44:16;18.62;;;8.85;;
43552;SDS011;29153;42.696;23.218;2024-02-26T01:46:44;21.27;;;8.50;;
43552;SDS011;29153;42.696;23.218;2024-02-26T01:49:11;16.87;;;8.70;;
43552;SDS011;29153;42.696;23.218;2024-02-26T01:51:39;20.35;;;8.93;;
43552;SDS011;29153;42.696;23.218;2024-02-26T01:54:09;19.25;;;8.95;;
43552;SDS011;29153;42.696;23.218;2024-02-26T01:56:37;18.48;;;8.95;;
43552;SDS011;29153;42.696;23.218;2024-02-26T01:59:06;16.82;;;8.70;;
43552;SDS011;29153;42.696;23.218;2024-02-26T02:01:35;17.15;;;8.85;;
43552;SDS011;29153;42.696;23.218;2024-02-26T02:06:30;17.50;;;8.05;;
43552;SDS011;29153;42.696;23.218;2024-02-26T02:08:59;18.00;;;8.63;;
43552;SDS011;29153;42.696;23.218;2024-02-26T02:11:28;17.65;;;8.65;;
43552;SDS011;29153;42.696;23.218;2024-02-26T02:13:56;18.00;;;7.97;;
43552;SDS011;29153;42.696;23.218;2024-02-26T02:16:23;17.62;;;8.10;;
43552;SDS011;29153;42.696;23.218;2024-02-26T02:18:51;18.75;;;8.65;;
43552;SDS011;29153;42.696;23.218;2024-02-26T02:21:18;17.45;;;8.65;;
43552;SDS011;29153;42.696;23.218;2024-02-26T02:23:46;20.95;;;9.38;;
43552;SDS011;29153;42.696;23.218;2024-02-26T02:26:14;17.48;;;8.63;;
43552;SDS011;29153;42.696;23.218;2024-02-26T02:28:42;19.73;;;9.10;;
43552;SDS011;29153;42.696;23.218;2024-02-26T02:31:10;20.52;;;9.25;;
43552;SDS011;29153;42.696;23.218;2024-02-26T02:33:38;16.30;;;8.40;;
43552;SDS011;29153;42.696;23.218;2024-02-26T02:36:06;20.43;;;8.78;;
43552;SDS011;29153;42.696;23.218;2024-02-26T02:38:36;19.20;;;8.85;;
43552;SDS011;29153;42.696;23.218;2024-02-26T02:41:04;19.42;;;8.93;;
43552;SDS011;29153;42.696;23.218;2024-02-26T02:43:31;18.12;;;8.20;;
43552;SDS011;29153;42.696;23.218;2024-02-26T02:45:59;20.45;;;8.60;;
43552;SDS011;29153;42.696;23.218;2024-02-26T02:48:26;18.80;;;8.33;;
43552;SDS011;29153;42.696;23.218;2024-02-26T02:50:54;18.15;;;8.95;;
43552;SDS011;29153;42.696;23.218;2024-02-26T02:53:22;17.32;;;8.65;;
43552;SDS011;29153;42.696;23.218;2024-02-26T02:55:49;16.60;;;8.23;;
43552;SDS011;29153;42.696;23.218;2024-02-26T02:58:17;18.73;;;9.20;;
43552;SDS011;29153;42.696;23.218;2024-02-26T03:00:44;18.87;;;8.43;;
43552;SDS011;29153;42.696;23.218;2024-02-26T03:03:12;18.35;;;9.58;;
43552;SDS011;29153;42.696;23.218;2024-02-26T03:05:39;18.45;;;8.85;;
43552;SDS011;29153;42.696;23.218;2024-02-26T03:08:07;18.98;;;9.15;;
43552;SDS011;29153;42.696;23.218;2024-02-26T03:10:35;19.65;;;9.30;;
43552;SDS011;29153;42.696;23.218;2024-02-26T03:13:03;17.82;;;8.70;;
43552;SDS011;29153;42.696;23.218;2024-02-26T03:15:30;19.32;;;8.65;;
43552;SDS011;29153;42.696;23.218;2024-02-26T03:17:58;17.73;;;8.95;;
43552;SDS011;29153;42.696;23.218;2024-02-26T03:20:25;20.35;;;8.93;;
43552;SDS011;29153;42.696;23.218;2024-02-26T03:22:53;18.90;;;9.30;;
43552;SDS011;29153;42.696;23.218;2024-02-26T03:25:20;21.30;;;8.85;;
43552;SDS011;29153;42.696;23.218;2024-02-26T03:27:48;19.35;;;9.00;;
43552;SDS011;29153;42.696;23.218;2024-02-26T03:30:16;20.02;;;9.58;;
43552;SDS011;29153;42.696;23.218;2024-02-26T03:32:43;18.40;;;9.25;;
43552;SDS011;29153;42.696;23.218;2024-02-26T03:35:12;19.65;;;9.43;;
43552;SDS011;29153;42.696;23.218;2024-02-26T03:37:40;21.70;;;9.43;;
43552;SDS011;29153;42.696;23.218;2024-02-26T03:40:07;17.87;;;9.35;;
43552;SDS011;29153;42.696;23.218;2024-02-26T03:42:35;21.70;;;9.50;;
43552;SDS011;29153;42.696;23.218;2024-02-26T03:45:03;18.37;;;9.23;;
43552;SDS011;29153;42.696;23.218;2024-02-26T03:47:30;18.25;;;9.13;;
43552;SDS011;29153;42.696;23.218;2024-02-26T03:49:58;20.80;;;9.35;;
43552;SDS011;29153;42.696;23.218;2024-02-26T03:52:25;21.85;;;9.43;;
43552;SDS011;29153;42.696;23.218;2024-02-26T03:54:53;23.00;;;9.58;;
43552;SDS011;29153;42.696;23.218;2024-02-26T03:57:20;19.87;;;9.55;;
43552;SDS011;29153;42.696;23.218;2024-02-26T03:59:48;19.00;;;9.50;;
43552;SDS011;29153;42.696;23.218;2024-02-26T04:02:16;21.65;;;10.08;;
43552;SDS011;29153;42.696;23.218;2024-02-26T04:04:45;18.57;;;10.38;;
43552;SDS011;29153;42.696;23.218;2024-02-26T04:07:13;21.10;;;9.65;;
43552;SDS011;29153;42.696;23.218;2024-02-26T04:09:40;21.73;;;9.68;;
43552;SDS011;29153;42.696;23.218;2024-02-26T04:12:08;18.48;;;9.55;;
43552;SDS011;29153;42.696;23.218;2024-02-26T04:14:36;18.73;;;8.78;;
43552;SDS011;29153;42.696;23.218;2024-02-26T04:17:04;18.27;;;9.28;;
43552;SDS011;29153;42.696;23.218;2024-02-26T04:19:31;16.75;;;9.23;;
43552;SDS011;29153;42.696;23.218;2024-02-26T04:21:59;18.85;;;8.90;;
43552;SDS011;29153;42.696;23.218;2024-02-26T04:24:26;17.40;;;8.25;;
43552;SDS011;29153;42.696;23.218;2024-02-26T04:26:54;16.80;;;8.53;;
43552;SDS011;29153;42.696;23.218;2024-02-26T04:29:21;20.10;;;9.15;;
43552;SDS011;29153;42.696;23.218;2024-02-26T04:31:49;18.73;;;8.93;;
43552;SDS011;29153;42.696;23.218;2024-02-26T04:34:16;18.65;;;8.83;;
43552;SDS011;29153;42.696;23.218;2024-02-26T04:36:44;18.62;;;9.30;;
43552;SDS011;29153;42.696;23.218;2024-02-26T04:39:13;19.90;;;9.43;;
43552;SDS011;29153;42.696;23.218;2024-02-26T04:41:41;23.10;;;9.78;;
43552;SDS011;29153;42.696;23.218;2024-02-26T04:44:08;18.52;;;9.10;;
43552;SDS011;29153;42.696;23.218;2024-02-26T04:46:36;18.70;;;9.18;;
43552;SDS011;29153;42.696;23.218;2024-02-26T04:49:03;20.57;;;9.63;;
43552;SDS011;29153;42.696;23.218;2024-02-26T04:51:31;20.57;;;8.98;;
43552;SDS011;29153;42.696;23.218;2024-02-26T04:53:58;20.77;;;10.90;;
43552;SDS011;29153;42.696;23.218;2024-02-26T04:56:26;21.75;;;9.58;;
43552;SDS011;29153;42.696;23.218;2024-02-26T04:58:53;18.73;;;9.13;;
43552;SDS011;29153;42.696;23.218;2024-02-26T05:01:21;17.10;;;9.03;;
43552;SDS011;29153;42.696;23.218;2024-02-26T05:03:48;16.97;;;8.95;;
43552;SDS011;29153;42.696;23.218;2024-02-26T05:06:16;19.12;;;9.75;;
43552;SDS011;29153;42.696;23.218;2024-02-26T05:08:44;16.50;;;8.40;;
43552;SDS011;29153;42.696;23.218;2024-02-26T05:11:11;17.52;;;8.70;;
43552;SDS011;29153;42.696;23.218;2024-02-26T05:13:39;23.57;;;8.95;;
43552;SDS011;29153;42.696;23.218;2024-02-26T05:16:06;18.87;;;8.68;;
43552;SDS011;29153;42.696;23.218;2024-02-26T05:18:34;18.87;;;7.78;;
43552;SDS011;29153;42.696;23.218;2024-02-26T05:21:01;14.98;;;8.43;;
43552;SDS011;29153;42.696;23.218;2024-02-26T05:23:29;15.35;;;7.50;;
43552;SDS011;29153;42.696;23.218;2024-02-26T05:25:56;17.60;;;8.58;;
43552;SDS011;29153;42.696;23.218;2024-02-26T05:28:24;21.35;;;8.70;;
43552;SDS011;29153;42.696;23.218;2024-02-26T05:30:52;14.35;;;7.55;;
43552;SDS011;29153;42.696;23.218;2024-02-26T05:33:19;14.33;;;7.62;;
43552;SDS011;29153;42.696;23.218;2024-02-26T05:35:48;17.40;;;8.25;;
43552;SDS011;29153;42.696;23.218;2024-02-26T05:38:16;17.87;;;8.13;;
43552;SDS011;29153;42.696;23.218;2024-02-26T05:40:44;16.73;;;7.87;;
43552;SDS011;29153;42.696;23.218;2024-02-26T05:43:11;17.35;;;8.50;;
43552;SDS011;29153;42.696;23.218;2024-02-26T05:45:41;16.20;;;8.38;;
43552;SDS011;29153;42.696;23.218;2024-02-26T05:48:08;16.48;;;8.18;;
43552;SDS011;29153;42.696;23.218;2024-02-26T05:50:36;16.95;;;7.60;;
43552;SDS011;29153;42.696;23.218;2024-02-26T05:53:03;15.32;;;7.85;;
43552;SDS011;29153;42.696;23.218;2024-02-26T05:55:31;18.57;;;8.65;;
43552;SDS011;29153;42.696;23.218;2024-02-26T05:57:59;19.10;;;8.10;;
43552;SDS011;29153;42.696;23.218;2024-02-26T06:00:26;15.48;;;7.85;;
43552;SDS011;29153;42.696;23.218;2024-02-26T06:02:54;15.10;;;8.08;;
43552;SDS011;29153;42.696;23.218;2024-02-26T06:05:21;16.42;;;8.05;;
43552;SDS011;29153;42.696;23.218;2024-02-26T06:07:49;16.07;;;8.00;;
43552;SDS011;29153;42.696;23.218;2024-02-26T06:10:17;14.00;;;7.53;;
43552;SDS011;29153;42.696;23.218;2024-02-26T06:12:47;15.50;;;7.20;;
43552;SDS011;29153;42.696;23.218;2024-02-26T06:15:14;16.37;;;8.20;;
43552;SDS011;29153;42.696;23.218;2024-02-26T06:17:42;16.27;;;7.90;;
43552;SDS011;29153;42.696;23.218;2024-02-26T06:20:09;13.65;;;7.15;;
43552;SDS011;29153;42.696;23.218;2024-02-26T06:22:41;18.07;;;7.78;;
